Terminal Aerodrome Forecast
Issued by NWS Melbourne, FL

Current Version | Previous Version | Text Only | Print | Product List | Glossary On
Versions: 1 2 3 4 5 6 7 8 9 10 11 12 13
418
FTUS42 KMLB 101722
TAFVRB
TAF
KVRB 101722Z 1018/1118 29012G22KT P6SM FEW060 SCT250
     FM110100 28007KT P6SM SKC
     FM111200 31005KT P6SM SKC=

USA.gov is the U.S. government's official web portal to all federal, state and local government web resources and services.